sensor_id;sensor_type;location;lat;lon;timestamp;temperature;humidity
24011;DHT22;12217;50.792;4.372;2023-05-31T00:02:12;17.00;99.90
24011;DHT22;12217;50.792;4.372;2023-05-31T00:04:38;17.00;99.90
24011;DHT22;12217;50.792;4.372;2023-05-31T00:07:05;17.10;99.90
24011;DHT22;12217;50.792;4.372;2023-05-31T00:09:31;17.10;99.90
24011;DHT22;12217;50.792;4.372;2023-05-31T00:11:56;17.10;99.90
24011;DHT22;12217;50.792;4.372;2023-05-31T00:14:22;17.00;99.90
24011;DHT22;12217;50.792;4.372;2023-05-31T00:16:47;17.00;99.90
24011;DHT22;12217;50.792;4.372;2023-05-31T00:19:13;16.80;99.90
24011;DHT22;12217;50.792;4.372;2023-05-31T00:21:38;16.90;99.90
24011;DHT22;12217;50.792;4.372;2023-05-31T00:24:04;16.90;99.90
24011;DHT22;12217;50.792;4.372;2023-05-31T00:26:30;16.90;99.90
24011;DHT22;12217;50.792;4.372;2023-05-31T00:28:55;17.00;99.90
24011;DHT22;12217;50.792;4.372;2023-05-31T00:31:21;17.00;99.90
24011;DHT22;12217;50.792;4.372;2023-05-31T00:33:46;16.80;99.90
24011;DHT22;12217;50.792;4.372;2023-05-31T00:36:12;16.80;99.90
24011;DHT22;12217;50.792;4.372;2023-05-31T00:38:38;16.80;99.90
24011;DHT22;12217;50.792;4.372;2023-05-31T00:41:03;16.90;99.90
24011;DHT22;12217;50.792;4.372;2023-05-31T00:43:29;17.00;99.90
24011;DHT22;12217;50.792;4.372;2023-05-31T00:45:55;16.90;99.90
24011;DHT22;12217;50.792;4.372;2023-05-31T00:48:20;17.00;99.90
24011;DHT22;12217;50.792;4.372;2023-05-31T00:50:47;16.90;99.90
24011;DHT22;12217;50.792;4.372;2023-05-31T00:53:14;16.80;99.90
24011;DHT22;12217;50.792;4.372;2023-05-31T00:55:40;16.80;99.90
24011;DHT22;12217;50.792;4.372;2023-05-31T00:58:06;16.90;99.90
24011;DHT22;12217;50.792;4.372;2023-05-31T01:00:32;16.80;99.90
24011;DHT22;12217;50.792;4.372;2023-05-31T01:02:57;16.80;99.90
24011;DHT22;12217;50.792;4.372;2023-05-31T01:05:27;16.90;99.90
24011;DHT22;12217;50.792;4.372;2023-05-31T01:07:53;16.90;99.90
24011;DHT22;12217;50.792;4.372;2023-05-31T01:10:19;16.90;99.90
24011;DHT22;12217;50.792;4.372;2023-05-31T01:13:20;16.90;99.90
24011;DHT22;12217;50.792;4.372;2023-05-31T01:15:55;16.80;99.90
24011;DHT22;12217;50.792;4.372;2023-05-31T01:18:30;16.80;99.90
24011;DHT22;12217;50.792;4.372;2023-05-31T01:20:58;16.60;99.90
24011;DHT22;12217;50.792;4.372;2023-05-31T01:23:59;16.60;99.90
24011;DHT22;12217;50.792;4.372;2023-05-31T01:26:45;16.50;99.90
24011;DHT22;12217;50.792;4.372;2023-05-31T01:29:15;16.50;99.90
24011;DHT22;12217;50.792;4.372;2023-05-31T01:31:42;16.50;99.90
24011;DHT22;12217;50.792;4.372;2023-05-31T01:34:09;16.50;99.90
24011;DHT22;12217;50.792;4.372;2023-05-31T01:36:35;16.40;99.90
24011;DHT22;12217;50.792;4.372;2023-05-31T01:39:02;16.30;99.90
24011;DHT22;12217;50.792;4.372;2023-05-31T01:41:29;16.20;99.90
24011;DHT22;12217;50.792;4.372;2023-05-31T01:43:57;16.10;99.90
24011;DHT22;12217;50.792;4.372;2023-05-31T01:46:23;16.20;99.90
24011;DHT22;12217;50.792;4.372;2023-05-31T01:48:49;16.20;99.90
24011;DHT22;12217;50.792;4.372;2023-05-31T01:51:15;16.30;99.90
24011;DHT22;12217;50.792;4.372;2023-05-31T01:53:42;16.20;99.90
24011;DHT22;12217;50.792;4.372;2023-05-31T01:56:08;16.30;99.90
24011;DHT22;12217;50.792;4.372;2023-05-31T01:58:40;16.20;99.90
24011;DHT22;12217;50.792;4.372;2023-05-31T02:01:11;16.20;99.90
24011;DHT22;12217;50.792;4.372;2023-05-31T02:03:40;16.10;99.90
24011;DHT22;12217;50.792;4.372;2023-05-31T02:06:06;16.00;99.90
24011;DHT22;12217;50.792;4.372;2023-05-31T02:08:32;16.10;99.90
24011;DHT22;12217;50.792;4.372;2023-05-31T02:10:58;16.10;99.90
24011;DHT22;12217;50.792;4.372;2023-05-31T02:13:27;16.10;99.90
24011;DHT22;12217;50.792;4.372;2023-05-31T02:15:53;16.10;99.90
24011;DHT22;12217;50.792;4.372;2023-05-31T02:18:19;16.20;99.90
24011;DHT22;12217;50.792;4.372;2023-05-31T02:20:45;16.10;99.90
24011;DHT22;12217;50.792;4.372;2023-05-31T02:23:10;16.10;99.90
24011;DHT22;12217;50.792;4.372;2023-05-31T02:25:36;16.00;99.90
24011;DHT22;12217;50.792;4.372;2023-05-31T02:28:02;15.90;99.90
24011;DHT22;12217;50.792;4.372;2023-05-31T02:30:29;15.90;99.90
24011;DHT22;12217;50.792;4.372;2023-05-31T02:32:55;16.00;99.90
24011;DHT22;12217;50.792;4.372;2023-05-31T02:35:21;16.00;99.90
24011;DHT22;12217;50.792;4.372;2023-05-31T02:37:46;16.00;99.90
24011;DHT22;12217;50.792;4.372;2023-05-31T02:40:12;15.90;99.90
24011;DHT22;12217;50.792;4.372;2023-05-31T02:42:40;15.80;99.90
24011;DHT22;12217;50.792;4.372;2023-05-31T02:45:07;15.90;99.90
24011;DHT22;12217;50.792;4.372;2023-05-31T02:47:35;15.90;99.90
24011;DHT22;12217;50.792;4.372;2023-05-31T02:50:00;15.80;99.90
24011;DHT22;12217;50.792;4.372;2023-05-31T02:52:26;15.80;99.90
24011;DHT22;12217;50.792;4.372;2023-05-31T02:54:52;15.80;99.90
24011;DHT22;12217;50.792;4.372;2023-05-31T02:57:18;15.70;99.90
24011;DHT22;12217;50.792;4.372;2023-05-31T02:59:44;15.80;99.90
24011;DHT22;12217;50.792;4.372;2023-05-31T03:02:09;15.80;99.90
24011;DHT22;12217;50.792;4.372;2023-05-31T03:04:35;15.70;99.90
24011;DHT22;12217;50.792;4.372;2023-05-31T03:07:01;15.60;99.90
24011;DHT22;12217;50.792;4.372;2023-05-31T03:09:27;15.60;99.90
24011;DHT22;12217;50.792;4.372;2023-05-31T03:11:52;15.70;99.90
24011;DHT22;12217;50.792;4.372;2023-05-31T03:14:18;15.60;99.90
24011;DHT22;12217;50.792;4.372;2023-05-31T03:16:44;15.60;99.90
24011;DHT22;12217;50.792;4.372;2023-05-31T03:19:10;15.60;99.90
24011;DHT22;12217;50.792;4.372;2023-05-31T03:21:38;15.70;99.90
24011;DHT22;12217;50.792;4.372;2023-05-31T03:24:03;15.70;99.90
24011;DHT22;12217;50.792;4.372;2023-05-31T03:26:29;15.70;99.90
24011;DHT22;12217;50.792;4.372;2023-05-31T03:28:55;15.60;99.90
24011;DHT22;12217;50.792;4.372;2023-05-31T03:31:20;15.60;99.90
24011;DHT22;12217;50.792;4.372;2023-05-31T03:33:46;15.60;99.90
24011;DHT22;12217;50.792;4.372;2023-05-31T03:36:11;15.60;99.90
24011;DHT22;12217;50.792;4.372;2023-05-31T03:38:37;15.70;99.90
24011;DHT22;12217;50.792;4.372;2023-05-31T03:41:03;15.60;99.90
24011;DHT22;12217;50.792;4.372;2023-05-31T03:43:28;15.60;99.90
24011;DHT22;12217;50.792;4.372;2023-05-31T03:45:54;15.60;99.90
24011;DHT22;12217;50.792;4.372;2023-05-31T03:48:19;15.60;99.90
24011;DHT22;12217;50.792;4.372;2023-05-31T03:50:45;15.40;99.90
24011;DHT22;12217;50.792;4.372;2023-05-31T03:53:11;15.50;99.90
24011;DHT22;12217;50.792;4.372;2023-05-31T03:55:36;15.50;99.90
24011;DHT22;12217;50.792;4.372;2023-05-31T03:58:02;15.40;99.90
24011;DHT22;12217;50.792;4.372;2023-05-31T04:00:28;15.40;99.90
24011;DHT22;12217;50.792;4.372;2023-05-31T04:02:54;15.50;99.90
24011;DHT22;12217;50.792;4.372;2023-05-31T04:05:20;15.50;99.90
24011;DHT22;12217;50.792;4.372;2023-05-31T04:07:45;15.50;99.90
24011;DHT22;12217;50.792;4.372;2023-05-31T04:10:11;15.40;99.90
24011;DHT22;12217;50.792;4.372;2023-05-31T04:12:37;15.30;99.90
24011;DHT22;12217;50.792;4.372;2023-05-31T04:15:02;15.20;99.90
24011;DHT22;12217;50.792;4.372;2023-05-31T04:17:28;15.20;99.90
24011;DHT22;12217;50.792;4.372;2023-05-31T04:19:53;15.30;99.90
24011;DHT22;12217;50.792;4.372;2023-05-31T04:22:19;15.20;99.90
24011;DHT22;12217;50.792;4.372;2023-05-31T04:24:46;15.10;99.90
24011;DHT22;12217;50.792;4.372;2023-05-31T04:27:11;15.20;99.90
24011;DHT22;12217;50.792;4.372;2023-05-31T04:29:46;15.20;99.90
24011;DHT22;12217;50.792;4.372;2023-05-31T04:32:12;15.30;99.90
24011;DHT22;12217;50.792;4.372;2023-05-31T04:34:41;15.20;99.90
24011;DHT22;12217;50.792;4.372;2023-05-31T04:37:08;15.20;99.90
24011;DHT22;12217;50.792;4.372;2023-05-31T04:39:34;15.20;99.90
24011;DHT22;12217;50.792;4.372;2023-05-31T04:42:00;15.20;99.90
24011;DHT22;12217;50.792;4.372;2023-05-31T04:44:25;15.20;99.90
24011;DHT22;12217;50.792;4.372;2023-05-31T04:46:51;15.20;99.90
24011;DHT22;12217;50.792;4.372;2023-05-31T04:49:17;15.30;99.90
24011;DHT22;12217;50.792;4.372;2023-05-31T04:51:44;15.30;99.90
24011;DHT22;12217;50.792;4.372;2023-05-31T04:54:09;15.30;99.90
24011;DHT22;12217;50.792;4.372;2023-05-31T04:56:35;15.30;99.90
24011;DHT22;12217;50.792;4.372;2023-05-31T04:59:00;15.30;99.90
24011;DHT22;12217;50.792;4.372;2023-05-31T05:01:27;15.30;99.90
24011;DHT22;12217;50.792;4.372;2023-05-31T05:03:52;15.40;99.90
24011;DHT22;12217;50.792;4.372;2023-05-31T05:06:18;15.50;99.90
24011;DHT22;12217;50.792;4.372;2023-05-31T05:08:44;15.50;99.90
24011;DHT22;12217;50.792;4.372;2023-05-31T05:11:11;15.50;99.90
24011;DHT22;12217;50.792;4.372;2023-05-31T05:13:37;15.40;99.90
24011;DHT22;12217;50.792;4.372;2023-05-31T05:16:03;15.50;99.90
24011;DHT22;12217;50.792;4.372;2023-05-31T05:18:29;15.50;99.90
24011;DHT22;12217;50.792;4.372;2023-05-31T05:20:55;15.60;99.90
24011;DHT22;12217;50.792;4.372;2023-05-31T05:23:22;15.60;99.90
24011;DHT22;12217;50.792;4.372;2023-05-31T05:25:47;15.50;99.90
24011;DHT22;12217;50.792;4.372;2023-05-31T05:28:13;15.70;99.90
24011;DHT22;12217;50.792;4.372;2023-05-31T05:30:39;15.70;99.90
24011;DHT22;12217;50.792;4.372;2023-05-31T05:33:05;15.70;99.90
24011;DHT22;12217;50.792;4.372;2023-05-31T05:35:31;15.80;99.90
24011;DHT22;12217;50.792;4.372;2023-05-31T05:37:57;15.70;99.90
24011;DHT22;12217;50.792;4.372;2023-05-31T05:40:23;15.70;99.90
24011;DHT22;12217;50.792;4.372;2023-05-31T05:42:49;15.80;99.90
24011;DHT22;12217;50.792;4.372;2023-05-31T05:45:15;15.80;99.90
24011;DHT22;12217;50.792;4.372;2023-05-31T05:47:41;15.90;99.90
24011;DHT22;12217;50.792;4.372;2023-05-31T05:50:10;16.00;99.90
24011;DHT22;12217;50.792;4.372;2023-05-31T05:52:36;16.10;99.90
24011;DHT22;12217;50.792;4.372;2023-05-31T05:55:02;16.10;99.90
24011;DHT22;12217;50.792;4.372;2023-05-31T05:57:28;16.10;99.90
24011;DHT22;12217;50.792;4.372;2023-05-31T05:59:54;16.10;99.90
24011;DHT22;12217;50.792;4.372;2023-05-31T06:02:19;16.20;99.90
24011;DHT22;12217;50.792;4.372;2023-05-31T06:04:46;16.10;99.90
24011;DHT22;12217;50.792;4.372;2023-05-31T06:07:11;16.20;99.90
24011;DHT22;12217;50.792;4.372;2023-05-31T06:09:37;16.20;99.90
24011;DHT22;12217;50.792;4.372;2023-05-31T06:12:02;16.30;99.90
24011;DHT22;12217;50.792;4.372;2023-05-31T06:14:28;16.30;99.90
24011;DHT22;12217;50.792;4.372;2023-05-31T06:16:54;16.50;99.90
24011;DHT22;12217;50.792;4.372;2023-05-31T06:19:19;16.50;99.90
24011;DHT22;12217;50.792;4.372;2023-05-31T06:21:45;16.60;99.90
24011;DHT22;12217;50.792;4.372;2023-05-31T06:24:10;16.70;99.90
24011;DHT22;12217;50.792;4.372;2023-05-31T06:26:36;16.80;99.90
24011;DHT22;12217;50.792;4.372;2023-05-31T06:29:03;16.90;99.90
24011;DHT22;12217;50.792;4.372;2023-05-31T06:31:29;16.90;99.90
24011;DHT22;12217;50.792;4.372;2023-05-31T06:33:56;17.00;99.90
24011;DHT22;12217;50.792;4.372;2023-05-31T06:36:22;17.10;99.90
24011;DHT22;12217;50.792;4.372;2023-05-31T06:38:47;17.00;99.90
24011;DHT22;12217;50.792;4.372;2023-05-31T06:41:13;17.00;99.90
24011;DHT22;12217;50.792;4.372;2023-05-31T06:43:39;17.00;99.90
24011;DHT22;12217;50.792;4.372;2023-05-31T06:46:04;17.10;99.90
24011;DHT22;12217;50.792;4.372;2023-05-31T06:48:33;17.20;99.90
24011;DHT22;12217;50.792;4.372;2023-05-31T06:50:59;17.20;99.90
24011;DHT22;12217;50.792;4.372;2023-05-31T06:53:24;17.40;99.90
24011;DHT22;12217;50.792;4.372;2023-05-31T06:55:50;17.40;99.90
24011;DHT22;12217;50.792;4.372;2023-05-31T06:58:16;17.50;99.90
24011;DHT22;12217;50.792;4.372;2023-05-31T07:00:42;17.50;99.90
24011;DHT22;12217;50.792;4.372;2023-05-31T07:03:08;17.60;99.90
24011;DHT22;12217;50.792;4.372;2023-05-31T07:05:34;17.60;99.90
24011;DHT22;12217;50.792;4.372;2023-05-31T07:08:00;17.60;99.90
24011;DHT22;12217;50.792;4.372;2023-05-31T07:10:26;17.70;99.90
24011;DHT22;12217;50.792;4.372;2023-05-31T07:12:53;17.80;99.90
24011;DHT22;12217;50.792;4.372;2023-05-31T07:15:19;17.80;99.90
24011;DHT22;12217;50.792;4.372;2023-05-31T07:17:45;17.80;99.90
24011;DHT22;12217;50.792;4.372;2023-05-31T07:20:11;18.00;99.90
24011;DHT22;12217;50.792;4.372;2023-05-31T07:22:37;18.10;99.90
24011;DHT22;12217;50.792;4.372;2023-05-31T07:25:03;18.10;99.90
24011;DHT22;12217;50.792;4.372;2023-05-31T07:27:30;18.20;99.90
24011;DHT22;12217;50.792;4.372;2023-05-31T07:29:56;18.30;99.90
24011;DHT22;12217;50.792;4.372;2023-05-31T07:32:22;18.30;99.90
24011;DHT22;12217;50.792;4.372;2023-05-31T07:34:47;18.50;99.90
24011;DHT22;12217;50.792;4.372;2023-05-31T07:37:13;18.60;99.90
24011;DHT22;12217;50.792;4.372;2023-05-31T07:39:39;18.70;99.90
24011;DHT22;12217;50.792;4.372;2023-05-31T07:42:04;18.80;99.90
24011;DHT22;12217;50.792;4.372;2023-05-31T07:44:30;18.80;99.90
24011;DHT22;12217;50.792;4.372;2023-05-31T07:46:56;18.90;99.90
24011;DHT22;12217;50.792;4.372;2023-05-31T07:49:21;19.00;99.90
24011;DHT22;12217;50.792;4.372;2023-05-31T07:51:47;19.00;99.90
24011;DHT22;12217;50.792;4.372;2023-05-31T07:54:13;19.10;99.90
24011;DHT22;12217;50.792;4.372;2023-05-31T07:56:38;19.10;99.90
24011;DHT22;12217;50.792;4.372;2023-05-31T07:59:05;19.20;99.90
24011;DHT22;12217;50.792;4.372;2023-05-31T08:01:32;19.20;99.90
24011;DHT22;12217;50.792;4.372;2023-05-31T08:04:05;19.30;99.90
24011;DHT22;12217;50.792;4.372;2023-05-31T08:06:31;19.50;99.90
24011;DHT22;12217;50.792;4.372;2023-05-31T08:08:58;19.60;99.90
24011;DHT22;12217;50.792;4.372;2023-05-31T08:11:24;19.60;99.90
24011;DHT22;12217;50.792;4.372;2023-05-31T08:13:51;19.70;99.90
24011;DHT22;12217;50.792;4.372;2023-05-31T08:16:17;19.90;99.90
24011;DHT22;12217;50.792;4.372;2023-05-31T08:18:43;19.90;99.90
24011;DHT22;12217;50.792;4.372;2023-05-31T08:21:09;19.90;99.90
24011;DHT22;12217;50.792;4.372;2023-05-31T08:23:34;19.90;99.90
24011;DHT22;12217;50.792;4.372;2023-05-31T08:26:00;19.90;99.90
24011;DHT22;12217;50.792;4.372;2023-05-31T08:28:26;20.10;99.90
24011;DHT22;12217;50.792;4.372;2023-05-31T08:30:52;20.20;99.90
24011;DHT22;12217;50.792;4.372;2023-05-31T08:33:18;20.40;99.90
24011;DHT22;12217;50.792;4.372;2023-05-31T08:35:43;20.50;99.90
24011;DHT22;12217;50.792;4.372;2023-05-31T08:38:09;20.60;99.90
24011;DHT22;12217;50.792;4.372;2023-05-31T08:40:35;20.70;99.90
24011;DHT22;12217;50.792;4.372;2023-05-31T08:43:04;20.70;99.90
24011;DHT22;12217;50.792;4.372;2023-05-31T08:45:34;20.90;99.90
24011;DHT22;12217;50.792;4.372;2023-05-31T08:48:10;21.00;99.90
24011;DHT22;12217;50.792;4.372;2023-05-31T08:50:39;21.10;99.90
24011;DHT22;12217;50.792;4.372;2023-05-31T08:53:06;21.20;99.90
24011;DHT22;12217;50.792;4.372;2023-05-31T08:55:34;21.30;99.90
24011;DHT22;12217;50.792;4.372;2023-05-31T08:58:00;21.40;99.90
24011;DHT22;12217;50.792;4.372;2023-05-31T09:00:28;21.50;99.90
24011;DHT22;12217;50.792;4.372;2023-05-31T09:02:53;21.60;99.90
24011;DHT22;12217;50.792;4.372;2023-05-31T09:05:19;21.80;99.90
24011;DHT22;12217;50.792;4.372;2023-05-31T09:07:45;21.90;99.90
24011;DHT22;12217;50.792;4.372;2023-05-31T09:10:13;21.80;99.90
24011;DHT22;12217;50.792;4.372;2023-05-31T09:12:40;21.80;99.90
24011;DHT22;12217;50.792;4.372;2023-05-31T09:15:06;21.80;99.90
24011;DHT22;12217;50.792;4.372;2023-05-31T09:17:33;22.00;99.90
24011;DHT22;12217;50.792;4.372;2023-05-31T09:20:00;22.10;99.90
24011;DHT22;12217;50.792;4.372;2023-05-31T09:22:26;22.10;99.90
24011;DHT22;12217;50.792;4.372;2023-05-31T09:24:56;22.10;99.90
24011;DHT22;12217;50.792;4.372;2023-05-31T09:27:26;22.30;99.90
24011;DHT22;12217;50.792;4.372;2023-05-31T09:29:53;22.30;99.90
24011;DHT22;12217;50.792;4.372;2023-05-31T09:32:19;22.40;99.90
24011;DHT22;12217;50.792;4.372;2023-05-31T09:34:45;22.60;99.90
24011;DHT22;12217;50.792;4.372;2023-05-31T09:37:24;22.60;99.90
24011;DHT22;12217;50.792;4.372;2023-05-31T09:39:56;22.70;99.90
24011;DHT22;12217;50.792;4.372;2023-05-31T09:42:24;23.00;99.90
24011;DHT22;12217;50.792;4.372;2023-05-31T09:44:51;23.20;99.90
24011;DHT22;12217;50.792;4.372;2023-05-31T09:47:17;23.40;99.90
24011;DHT22;12217;50.792;4.372;2023-05-31T09:49:47;23.40;99.90
24011;DHT22;12217;50.792;4.372;2023-05-31T09:52:13;23.50;99.90
24011;DHT22;12217;50.792;4.372;2023-05-31T09:54:39;23.60;99.90
24011;DHT22;12217;50.792;4.372;2023-05-31T09:57:05;23.70;99.90
24011;DHT22;12217;50.792;4.372;2023-05-31T09:59:34;23.80;99.90
24011;DHT22;12217;50.792;4.372;2023-05-31T10:02:01;23.90;99.90
24011;DHT22;12217;50.792;4.372;2023-05-31T10:04:28;23.90;99.90
24011;DHT22;12217;50.792;4.372;2023-05-31T10:06:55;24.00;99.90
24011;DHT22;12217;50.792;4.372;2023-05-31T10:09:20;24.10;99.90
24011;DHT22;12217;50.792;4.372;2023-05-31T10:11:50;24.20;99.90
24011;DHT22;12217;50.792;4.372;2023-05-31T10:16:53;24.40;99.90
24011;DHT22;12217;50.792;4.372;2023-05-31T10:19:23;24.40;99.90
24011;DHT22;12217;50.792;4.372;2023-05-31T10:21:50;24.50;99.90
24011;DHT22;12217;50.792;4.372;2023-05-31T10:24:24;24.50;99.90
24011;DHT22;12217;50.792;4.372;2023-05-31T10:27:05;24.50;99.90
24011;DHT22;12217;50.792;4.372;2023-05-31T10:29:51;24.60;99.90
24011;DHT22;12217;50.792;4.372;2023-05-31T10:32:20;24.80;99.90
24011;DHT22;12217;50.792;4.372;2023-05-31T10:34:46;24.90;99.90
24011;DHT22;12217;50.792;4.372;2023-05-31T10:37:13;25.10;99.90
24011;DHT22;12217;50.792;4.372;2023-05-31T10:45:43;25.30;99.90
24011;DHT22;12217;50.792;4.372;2023-05-31T10:48:22;25.40;99.90
24011;DHT22;12217;50.792;4.372;2023-05-31T10:50:56;25.70;99.90
24011;DHT22;12217;50.792;4.372;2023-05-31T10:53:23;25.80;99.90
24011;DHT22;12217;50.792;4.372;2023-05-31T10:55:52;26.10;99.90
24011;DHT22;12217;50.792;4.372;2023-05-31T10:58:26;26.10;99.90
24011;DHT22;12217;50.792;4.372;2023-05-31T11:01:03;26.20;99.10
24011;DHT22;12217;50.792;4.372;2023-05-31T11:03:29;26.20;99.90
24011;DHT22;12217;50.792;4.372;2023-05-31T11:06:01;26.30;99.40
24011;DHT22;12217;50.792;4.372;2023-05-31T11:08:29;26.30;99.90
24011;DHT22;12217;50.792;4.372;2023-05-31T11:14:09;26.50;97.20
24011;DHT22;12217;50.792;4.372;2023-05-31T11:19:14;26.50;96.80
24011;DHT22;12217;50.792;4.372;2023-05-31T11:22:10;26.40;96.30
24011;DHT22;12217;50.792;4.372;2023-05-31T11:24:49;26.40;95.30
24011;DHT22;12217;50.792;4.372;2023-05-31T11:27:19;26.70;95.10
24011;DHT22;12217;50.792;4.372;2023-05-31T11:32:14;27.00;93.80
24011;DHT22;12217;50.792;4.372;2023-05-31T11:37:23;27.20;93.30
24011;DHT22;12217;50.792;4.372;2023-05-31T11:39:53;27.30;89.90
24011;DHT22;12217;50.792;4.372;2023-05-31T11:42:20;27.50;89.30
24011;DHT22;12217;50.792;4.372;2023-05-31T11:44:47;27.50;90.40
24011;DHT22;12217;50.792;4.372;2023-05-31T11:47:19;27.60;90.80
24011;DHT22;12217;50.792;4.372;2023-05-31T11:49:46;27.70;87.50
24011;DHT22;12217;50.792;4.372;2023-05-31T11:52:16;27.70;89.00
24011;DHT22;12217;50.792;4.372;2023-05-31T11:54:43;27.70;88.50
24011;DHT22;12217;50.792;4.372;2023-05-31T11:57:11;27.90;85.90
24011;DHT22;12217;50.792;4.372;2023-05-31T11:59:38;27.70;85.50
24011;DHT22;12217;50.792;4.372;2023-05-31T12:02:05;27.80;83.40
24011;DHT22;12217;50.792;4.372;2023-05-31T12:04:36;27.80;82.50
24011;DHT22;12217;50.792;4.372;2023-05-31T12:07:10;28.00;79.80
24011;DHT22;12217;50.792;4.372;2023-05-31T12:09:35;28.00;83.60
24011;DHT22;12217;50.792;4.372;2023-05-31T12:12:02;28.00;83.00
24011;DHT22;12217;50.792;4.372;2023-05-31T12:14:29;28.10;86.10
24011;DHT22;12217;50.792;4.372;2023-05-31T12:16:54;28.30;85.20
24011;DHT22;12217;50.792;4.372;2023-05-31T12:19:21;28.50;81.50
24011;DHT22;12217;50.792;4.372;2023-05-31T12:21:47;28.50;79.20
24011;DHT22;12217;50.792;4.372;2023-05-31T12:24:16;28.60;78.90
24011;DHT22;12217;50.792;4.372;2023-05-31T12:26:47;28.60;81.20
24011;DHT22;12217;50.792;4.372;2023-05-31T12:29:17;28.40;78.30
24011;DHT22;12217;50.792;4.372;2023-05-31T12:31:43;28.40;78.70
24011;DHT22;12217;50.792;4.372;2023-05-31T12:34:11;28.60;76.70
24011;DHT22;12217;50.792;4.372;2023-05-31T12:39:07;28.70;75.00
24011;DHT22;12217;50.792;4.372;2023-05-31T12:41:35;28.70;76.70
24011;DHT22;12217;50.792;4.372;2023-05-31T12:44:00;28.70;77.60
24011;DHT22;12217;50.792;4.372;2023-05-31T12:46:26;28.90;73.40
24011;DHT22;12217;50.792;4.372;2023-05-31T12:48:52;29.00;74.80
24011;DHT22;12217;50.792;4.372;2023-05-31T12:51:23;29.20;72.30
24011;DHT22;12217;50.792;4.372;2023-05-31T12:53:49;29.40;70.80
24011;DHT22;12217;50.792;4.372;2023-05-31T12:56:15;29.00;73.60
24011;DHT22;12217;50.792;4.372;2023-05-31T12:58:42;29.10;73.50
24011;DHT22;12217;50.792;4.372;2023-05-31T13:01:08;29.00;73.20
24011;DHT22;12217;50.792;4.372;2023-05-31T13:03:33;29.10;74.10
24011;DHT22;12217;50.792;4.372;2023-05-31T13:05:59;29.30;77.10
24011;DHT22;12217;50.792;4.372;2023-05-31T13:08:25;29.30;76.70
24011;DHT22;12217;50.792;4.372;2023-05-31T13:10:50;29.30;70.40
24011;DHT22;12217;50.792;4.372;2023-05-31T13:13:16;29.40;70.90
24011;DHT22;12217;50.792;4.372;2023-05-31T13:15:41;29.60;72.80
24011;DHT22;12217;50.792;4.372;2023-05-31T13:18:07;29.50;72.60
24011;DHT22;12217;50.792;4.372;2023-05-31T13:20:33;29.40;71.30
24011;DHT22;12217;50.792;4.372;2023-05-31T13:22:58;29.20;71.10
24011;DHT22;12217;50.792;4.372;2023-05-31T13:25:24;29.30;73.30
24011;DHT22;12217;50.792;4.372;2023-05-31T13:27:49;29.20;74.00
24011;DHT22;12217;50.792;4.372;2023-05-31T13:30:15;29.40;70.90
24011;DHT22;12217;50.792;4.372;2023-05-31T13:32:41;29.50;71.10
24011;DHT22;12217;50.792;4.372;2023-05-31T13:35:08;29.60;71.40
24011;DHT22;12217;50.792;4.372;2023-05-31T13:37:35;29.50;72.60
24011;DHT22;12217;50.792;4.372;2023-05-31T13:40:01;29.50;72.80
24011;DHT22;12217;50.792;4.372;2023-05-31T13:42:27;29.70;74.00
24011;DHT22;12217;50.792;4.372;2023-05-31T13:44:53;29.60;71.00
24011;DHT22;12217;50.792;4.372;2023-05-31T13:47:18;29.50;70.00
24011;DHT22;12217;50.792;4.372;2023-05-31T13:49:45;29.30;71.50
24011;DHT22;12217;50.792;4.372;2023-05-31T13:52:10;29.20;70.40
24011;DHT22;12217;50.792;4.372;2023-05-31T13:54:38;29.30;72.70
24011;DHT22;12217;50.792;4.372;2023-05-31T13:57:04;29.30;72.90
24011;DHT22;12217;50.792;4.372;2023-05-31T13:59:30;29.40;71.80
24011;DHT22;12217;50.792;4.372;2023-05-31T14:01:57;29.40;70.50
24011;DHT22;12217;50.792;4.372;2023-05-31T14:04:22;29.20;70.80
24011;DHT22;12217;50.792;4.372;2023-05-31T14:06:48;29.30;69.40
24011;DHT22;12217;50.792;4.372;2023-05-31T14:09:14;29.30;69.70
24011;DHT22;12217;50.792;4.372;2023-05-31T14:11:40;29.30;69.20
24011;DHT22;12217;50.792;4.372;2023-05-31T14:14:06;29.40;69.50
24011;DHT22;12217;50.792;4.372;2023-05-31T14:16:32;29.40;68.40
24011;DHT22;12217;50.792;4.372;2023-05-31T14:18:57;29.20;70.10
24011;DHT22;12217;50.792;4.372;2023-05-31T14:21:23;29.30;68.20
24011;DHT22;12217;50.792;4.372;2023-05-31T14:23:49;29.40;70.10
24011;DHT22;12217;50.792;4.372;2023-05-31T14:26:14;29.30;70.40
24011;DHT22;12217;50.792;4.372;2023-05-31T14:28:40;29.40;70.50
24011;DHT22;12217;50.792;4.372;2023-05-31T14:31:05;29.60;70.90
24011;DHT22;12217;50.792;4.372;2023-05-31T14:33:31;29.80;70.60
24011;DHT22;12217;50.792;4.372;2023-05-31T14:35:57;29.90;72.20
24011;DHT22;12217;50.792;4.372;2023-05-31T14:38:22;29.80;67.00
24011;DHT22;12217;50.792;4.372;2023-05-31T14:40:48;29.80;69.10
24011;DHT22;12217;50.792;4.372;2023-05-31T14:43:16;29.60;69.80
24011;DHT22;12217;50.792;4.372;2023-05-31T14:45:42;29.70;69.90
24011;DHT22;12217;50.792;4.372;2023-05-31T14:48:07;29.60;70.60
24011;DHT22;12217;50.792;4.372;2023-05-31T14:50:33;30.00;68.40
24011;DHT22;12217;50.792;4.372;2023-05-31T14:52:58;29.90;68.50
24011;DHT22;12217;50.792;4.372;2023-05-31T14:55:24;29.60;68.60
24011;DHT22;12217;50.792;4.372;2023-05-31T14:57:49;29.80;69.30
24011;DHT22;12217;50.792;4.372;2023-05-31T15:00:15;29.80;71.50
24011;DHT22;12217;50.792;4.372;2023-05-31T15:02:41;29.90;68.80
24011;DHT22;12217;50.792;4.372;2023-05-31T15:05:08;29.80;67.40
24011;DHT22;12217;50.792;4.372;2023-05-31T15:07:33;29.60;68.60
24011;DHT22;12217;50.792;4.372;2023-05-31T15:09:59;29.60;69.60
24011;DHT22;12217;50.792;4.372;2023-05-31T15:12:25;29.50;69.50
24011;DHT22;12217;50.792;4.372;2023-05-31T15:14:50;29.50;69.30
24011;DHT22;12217;50.792;4.372;2023-05-31T15:17:16;29.30;69.60
24011;DHT22;12217;50.792;4.372;2023-05-31T15:19:41;29.30;69.60
24011;DHT22;12217;50.792;4.372;2023-05-31T15:22:08;29.40;70.70
24011;DHT22;12217;50.792;4.372;2023-05-31T15:24:35;29.60;69.60
24011;DHT22;12217;50.792;4.372;2023-05-31T15:27:02;29.70;69.40
24011;DHT22;12217;50.792;4.372;2023-05-31T15:29:27;29.60;69.90
24011;DHT22;12217;50.792;4.372;2023-05-31T15:31:53;29.40;69.40
24011;DHT22;12217;50.792;4.372;2023-05-31T15:34:21;29.20;68.30
24011;DHT22;12217;50.792;4.372;2023-05-31T15:36:47;29.00;69.40
24011;DHT22;12217;50.792;4.372;2023-05-31T15:39:12;29.00;70.30
24011;DHT22;12217;50.792;4.372;2023-05-31T15:41:38;28.80;71.20
24011;DHT22;12217;50.792;4.372;2023-05-31T15:44:04;28.80;68.80
24011;DHT22;12217;50.792;4.372;2023-05-31T15:46:29;28.80;70.10
24011;DHT22;12217;50.792;4.372;2023-05-31T15:48:55;28.60;68.80
24011;DHT22;12217;50.792;4.372;2023-05-31T15:51:20;28.70;69.90